createdAt,value
2018-03-15T00:01:15.344Z,4.50
2018-03-15T00:03:42.913Z,3.83
2018-03-15T00:06:10.466Z,3.80
2018-03-15T00:08:38.099Z,3.93
2018-03-15T00:11:05.677Z,4.97
2018-03-15T00:13:33.259Z,3.53
2018-03-15T00:16:00.818Z,4.10
2018-03-15T00:18:28.429Z,3.80
2018-03-15T00:20:56.000Z,3.90
2018-03-15T00:23:23.553Z,4.00
2018-03-15T00:25:51.122Z,4.30
2018-03-15T00:28:18.678Z,4.00
2018-03-15T00:30:46.306Z,5.20
2018-03-15T00:33:14.719Z,4.10
2018-03-15T00:35:42.347Z,4.20
2018-03-15T00:38:09.906Z,4.30
2018-03-15T00:40:37.524Z,4.00
2018-03-15T00:43:05.143Z,4.57
2018-03-15T00:45:32.710Z,4.27
2018-03-15T00:48:00.274Z,4.00
2018-03-15T00:50:27.829Z,3.93
2018-03-15T00:52:55.394Z,4.60
2018-03-15T00:55:23.015Z,4.07
2018-03-15T00:57:50.582Z,4.40
2018-03-15T01:00:18.151Z,4.50
2018-03-15T01:02:45.840Z,4.50
2018-03-15T01:05:13.470Z,4.03
2018-03-15T01:07:41.053Z,3.87
2018-03-15T01:10:08.624Z,4.30
2018-03-15T01:12:36.178Z,4.13
2018-03-15T01:15:03.742Z,3.63
2018-03-15T01:17:31.368Z,3.33
2018-03-15T01:19:58.930Z,3.77
2018-03-15T01:22:26.484Z,3.60
2018-03-15T01:24:54.069Z,3.53
2018-03-15T01:27:21.632Z,4.33
2018-03-15T01:29:49.302Z,4.13
2018-03-15T01:32:16.876Z,3.93
2018-03-15T01:34:44.499Z,3.57
2018-03-15T01:37:12.124Z,4.50
2018-03-15T01:39:39.747Z,5.37
2018-03-15T01:42:07.314Z,5.30
2018-03-15T01:44:34.873Z,5.63
2018-03-15T01:47:02.434Z,5.43
2018-03-15T01:49:30.005Z,5.50
2018-03-15T01:51:57.576Z,5.50
2018-03-15T01:54:25.129Z,5.37
2018-03-15T01:56:52.694Z,4.87
2018-03-15T01:59:20.250Z,5.40
2018-03-15T02:01:47.807Z,8.93
2018-03-15T02:04:15.369Z,5.40
2018-03-15T02:06:42.926Z,6.70
2018-03-15T02:09:10.493Z,5.80
2018-03-15T02:11:38.046Z,6.13
2018-03-15T02:14:05.717Z,6.27
2018-03-15T02:16:33.339Z,7.63
2018-03-15T02:19:00.933Z,5.83
2018-03-15T02:21:28.486Z,7.27
2018-03-15T02:23:56.048Z,5.83
2018-03-15T02:26:23.632Z,5.87
2018-03-15T02:28:51.189Z,5.17
2018-03-15T02:31:18.828Z,5.60
2018-03-15T02:33:46.386Z,6.13
2018-03-15T02:36:14.003Z,6.60
2018-03-15T02:38:41.642Z,5.37
2018-03-15T02:41:09.205Z,5.97
2018-03-15T02:43:36.777Z,6.03
2018-03-15T02:46:04.338Z,6.53
2018-03-15T02:48:31.897Z,5.83
2018-03-15T02:50:59.460Z,6.50
2018-03-15T02:53:27.087Z,6.47
2018-03-15T02:55:54.646Z,7.13
2018-03-15T02:58:22.206Z,7.10
2018-03-15T03:00:49.766Z,7.07
2018-03-15T03:03:17.321Z,7.80
2018-03-15T03:05:44.891Z,6.57
2018-03-15T03:08:12.513Z,8.13
2018-03-15T03:10:40.079Z,7.30
2018-03-15T03:13:07.635Z,7.40
2018-03-15T03:15:35.259Z,8.97
2018-03-15T03:18:02.883Z,8.00
2018-03-15T03:20:30.515Z,8.50
2018-03-15T03:22:58.074Z,10.33
2018-03-15T03:25:25.634Z,14.10
2018-03-15T03:27:53.260Z,11.53
2018-03-15T03:30:20.823Z,12.47
2018-03-15T03:32:48.455Z,11.93
2018-03-15T03:35:16.079Z,13.03
2018-03-15T03:37:43.646Z,11.77
2018-03-15T03:40:11.210Z,10.47
2018-03-15T03:42:38.789Z,12.10
2018-03-15T03:45:06.362Z,12.07
2018-03-15T03:47:33.995Z,11.63
2018-03-15T03:50:01.638Z,10.27
2018-03-15T03:52:29.236Z,11.20
2018-03-15T03:54:56.810Z,13.37
2018-03-15T03:57:24.388Z,19.30
2018-03-15T03:59:52.031Z,18.40
2018-03-15T04:02:19.590Z,18.10
2018-03-15T04:04:47.166Z,17.83
2018-03-15T04:07:14.799Z,18.93
2018-03-15T04:09:42.361Z,20.03
2018-03-15T04:12:09.930Z,21.40
2018-03-15T04:14:37.485Z,19.67
2018-03-15T04:17:05.054Z,22.17
2018-03-15T04:19:32.678Z,24.10
2018-03-15T04:22:00.251Z,22.53
2018-03-15T04:24:27.878Z,21.00
2018-03-15T04:26:55.445Z,21.03
2018-03-15T04:29:23.086Z,20.57
2018-03-15T04:31:50.725Z,18.57
2018-03-15T04:34:18.301Z,18.03
2018-03-15T04:36:45.862Z,15.80
2018-03-15T04:39:13.435Z,17.67
2018-03-15T04:41:41.070Z,16.63
2018-03-15T04:44:08.661Z,16.93
2018-03-15T04:46:36.219Z,16.97
2018-03-15T04:49:03.849Z,15.63
2018-03-15T04:51:31.480Z,15.20
2018-03-15T04:53:59.047Z,12.00
2018-03-15T04:56:26.614Z,12.57
2018-03-15T04:58:54.243Z,14.93
2018-03-15T05:01:21.878Z,14.67
2018-03-15T05:03:49.442Z,13.53
2018-03-15T05:06:17.071Z,12.83
2018-03-15T05:08:44.696Z,12.83
2018-03-15T05:11:12.262Z,12.47
2018-03-15T05:13:39.825Z,14.43
2018-03-15T05:16:07.451Z,18.70
2018-03-15T05:18:35.022Z,18.97
2018-03-15T05:21:02.583Z,24.40
2018-03-15T05:23:30.220Z,20.73
2018-03-15T05:25:57.881Z,23.93
2018-03-15T05:28:25.558Z,19.80
2018-03-15T05:30:53.165Z,17.63
2018-03-15T05:33:20.786Z,15.97
2018-03-15T05:35:48.429Z,15.03
2018-03-15T05:38:15.993Z,15.50
2018-03-15T05:40:43.565Z,15.00
2018-03-15T05:43:11.130Z,14.67
2018-03-15T05:45:38.758Z,15.70
2018-03-15T05:48:06.323Z,16.27
2018-03-15T05:50:33.888Z,19.13
2018-03-15T05:53:01.526Z,21.30
2018-03-15T05:55:29.090Z,24.83
2018-03-15T05:57:56.752Z,21.50
2018-03-15T06:00:24.328Z,19.60
2018-03-15T06:02:51.954Z,16.00
2018-03-15T06:05:19.514Z,13.60
2018-03-15T06:07:47.148Z,10.30
2018-03-15T06:10:14.736Z,10.50
2018-03-15T06:12:42.298Z,10.17
2018-03-15T06:15:09.879Z,10.90
2018-03-15T06:17:37.448Z,10.73
2018-03-15T06:20:05.078Z,10.40
2018-03-15T06:22:32.650Z,10.30
2018-03-15T06:25:00.214Z,10.77
2018-03-15T06:27:27.804Z,9.57
2018-03-15T06:29:55.383Z,13.43
2018-03-15T06:32:23.028Z,10.17
2018-03-15T06:34:50.617Z,10.00
2018-03-15T06:37:18.259Z,11.53
2018-03-15T06:39:45.828Z,10.80
2018-03-15T06:42:13.455Z,10.47
2018-03-15T06:44:41.027Z,10.03
2018-03-15T06:47:08.658Z,12.00
2018-03-15T06:49:36.303Z,11.80
2018-03-15T06:52:03.863Z,10.50
2018-03-15T06:54:31.539Z,9.23
2018-03-15T06:56:59.099Z,9.90
2018-03-15T06:59:26.701Z,11.37
2018-03-15T07:01:54.299Z,12.30
2018-03-15T07:04:21.892Z,10.30
2018-03-15T07:06:49.528Z,9.70
2018-03-15T07:09:17.089Z,9.90
2018-03-15T07:11:44.665Z,10.30
2018-03-15T07:14:12.252Z,10.30
2018-03-15T07:16:39.858Z,10.27
2018-03-15T07:19:07.429Z,9.80
2018-03-15T07:21:35.017Z,10.20
2018-03-15T07:24:02.586Z,11.00
2018-03-15T07:26:30.228Z,10.40
2018-03-15T07:28:57.804Z,10.17
2018-03-15T07:31:25.415Z,9.80
2018-03-15T07:33:53.043Z,10.83
2018-03-15T07:36:20.695Z,10.30
2018-03-15T07:38:48.318Z,9.70
2018-03-15T07:41:15.882Z,10.13
2018-03-15T07:43:43.467Z,12.30
2018-03-15T07:46:11.040Z,10.40
2018-03-15T07:48:38.615Z,11.33
2018-03-15T07:51:06.239Z,11.87
2018-03-15T07:53:33.875Z,10.33
2018-03-15T07:56:01.586Z,9.90
2018-03-15T07:58:29.179Z,11.83
2018-03-15T08:00:56.750Z,9.90
2018-03-15T08:03:24.307Z,8.80
2018-03-15T08:05:51.885Z,8.73
2018-03-15T08:08:19.507Z,9.43
2018-03-15T08:10:47.136Z,9.20
2018-03-15T08:13:14.699Z,8.07
2018-03-15T08:15:42.323Z,8.40
2018-03-15T08:18:09.958Z,8.63
2018-03-15T08:20:37.542Z,9.10
2018-03-15T08:23:05.131Z,8.20
2018-03-15T08:25:32.698Z,6.90
2018-03-15T08:28:00.262Z,9.60
2018-03-15T08:30:27.835Z,8.57
2018-03-15T08:32:55.476Z,8.90
2018-03-15T08:35:23.047Z,7.80
2018-03-15T08:37:50.667Z,8.90
2018-03-15T08:40:18.242Z,8.20
2018-03-15T08:42:45.803Z,8.90
2018-03-15T08:45:13.379Z,8.33
2018-03-15T08:47:41.003Z,8.70
2018-03-15T08:50:08.584Z,10.00
2018-03-15T08:52:36.220Z,9.60
2018-03-15T08:55:03.858Z,9.30
2018-03-15T08:57:31.428Z,8.97
2018-03-15T08:59:59.123Z,9.20
2018-03-15T09:02:26.691Z,9.67
2018-03-15T09:04:54.268Z,8.60
2018-03-15T09:07:21.845Z,10.30
2018-03-15T09:09:49.414Z,10.50
2018-03-15T09:12:17.050Z,10.80
2018-03-15T09:14:44.675Z,10.80
2018-03-15T09:17:12.254Z,10.07
2018-03-15T09:19:39.815Z,8.80
2018-03-15T09:22:07.510Z,9.60
2018-03-15T09:24:35.074Z,8.50
2018-03-15T09:27:02.700Z,10.00
2018-03-15T09:29:30.334Z,10.37
2018-03-15T09:31:57.989Z,9.27
2018-03-15T09:34:25.639Z,9.20
2018-03-15T09:36:53.177Z,8.73
2018-03-15T09:39:20.894Z,10.47
2018-03-15T09:41:48.482Z,10.37
2018-03-15T09:44:16.082Z,10.70
2018-03-15T09:46:43.747Z,9.53
2018-03-15T09:49:11.418Z,10.70
2018-03-15T09:51:39.068Z,9.37
2018-03-15T09:54:06.656Z,8.80
2018-03-15T09:56:34.321Z,8.53
2018-03-15T09:59:01.971Z,10.03
2018-03-15T10:01:29.694Z,11.73
2018-03-15T10:03:57.356Z,9.40
2018-03-15T10:06:25.020Z,10.70
2018-03-15T10:08:52.674Z,9.33
2018-03-15T10:11:20.289Z,9.27
2018-03-15T10:13:47.889Z,9.13
2018-03-15T10:16:15.486Z,8.77
2018-03-15T10:18:43.073Z,9.03
2018-03-15T10:21:10.662Z,9.00
2018-03-15T10:23:38.412Z,8.63
2018-03-15T10:26:06.083Z,9.57
2018-03-15T10:28:33.667Z,9.13
2018-03-15T10:31:01.316Z,9.27
2018-03-15T10:33:34.387Z,8.70
2018-03-15T10:36:01.998Z,9.90
2018-03-15T10:38:29.647Z,10.17
2018-03-15T10:40:57.322Z,10.73
2018-03-15T10:43:24.972Z,10.20
2018-03-15T10:45:52.626Z,8.97
2018-03-15T10:48:20.222Z,9.70
2018-03-15T10:50:47.815Z,7.93
2018-03-15T10:53:15.394Z,8.40
2018-03-15T10:55:43.026Z,7.87
2018-03-15T10:58:10.641Z,8.07
2018-03-15T11:00:43.759Z,10.03
2018-03-15T11:03:17.449Z,9.13
2018-03-15T11:05:46.538Z,8.33
2018-03-15T11:08:24.911Z,7.47
2018-03-15T11:10:52.490Z,7.37
2018-03-15T11:13:20.166Z,8.83
2018-03-15T11:15:47.836Z,8.93
2018-03-15T11:18:15.515Z,7.87
2018-03-15T11:20:43.121Z,7.60
2018-03-15T11:23:10.762Z,9.07
2018-03-15T11:25:38.377Z,7.23
2018-03-15T11:28:06.030Z,7.03
2018-03-15T11:30:33.617Z,7.63
2018-03-15T11:33:01.222Z,8.50
2018-03-15T11:35:28.875Z,7.27
2018-03-15T11:37:56.568Z,7.80
2018-03-15T11:40:24.162Z,8.20
2018-03-15T11:42:51.774Z,7.00
2018-03-15T11:45:19.436Z,7.70
2018-03-15T11:47:47.051Z,9.00
2018-03-15T11:50:14.658Z,8.13
2018-03-15T11:52:42.246Z,9.03
2018-03-15T11:55:09.846Z,8.80
2018-03-15T11:57:37.433Z,9.37
2018-03-15T12:00:05.111Z,9.67
2018-03-15T12:02:32.687Z,9.83
2018-03-15T12:05:00.358Z,8.37
2018-03-15T12:07:27.963Z,9.17
2018-03-15T12:09:55.621Z,9.30
2018-03-15T12:12:23.299Z,8.50
2018-03-15T12:14:50.884Z,7.23
2018-03-15T12:17:18.493Z,9.07
2018-03-15T12:19:46.082Z,10.43
2018-03-15T12:22:13.652Z,9.67
2018-03-15T12:24:41.240Z,10.53
2018-03-15T12:27:08.866Z,7.60
2018-03-15T12:29:36.438Z,7.93
2018-03-15T12:32:04.056Z,7.23
2018-03-15T12:34:31.700Z,7.90
2018-03-15T12:36:59.266Z,8.20
2018-03-15T12:39:26.837Z,8.00
2018-03-15T12:41:54.474Z,7.83
2018-03-15T12:44:22.065Z,7.47
2018-03-15T12:46:49.705Z,8.03
2018-03-15T12:49:17.327Z,7.97
2018-03-15T12:51:44.970Z,8.00
2018-03-15T12:54:12.535Z,9.63
2018-03-15T12:56:40.179Z,9.10
2018-03-15T12:59:07.818Z,8.40
2018-03-15T13:01:35.382Z,9.30
2018-03-15T13:04:03.026Z,9.73
2018-03-15T13:06:30.592Z,8.30
2018-03-15T13:08:58.166Z,8.87
2018-03-15T13:11:25.735Z,9.00
2018-03-15T13:13:53.355Z,9.00
2018-03-15T13:16:20.923Z,8.33
2018-03-15T13:18:48.493Z,8.60
2018-03-15T13:21:16.066Z,9.70
2018-03-15T13:23:43.630Z,8.13
2018-03-15T13:26:11.283Z,8.10
2018-03-15T13:28:38.849Z,8.10
2018-03-15T13:31:06.411Z,8.97
2018-03-15T13:33:33.983Z,9.27
2018-03-15T13:36:01.542Z,8.97
2018-03-15T13:38:29.120Z,10.97
2018-03-15T13:40:56.685Z,7.23
2018-03-15T13:43:24.255Z,8.37
2018-03-15T13:45:51.885Z,9.27
2018-03-15T13:48:19.445Z,8.30
2018-03-15T13:50:47.025Z,10.67
2018-03-15T13:53:14.604Z,7.87
2018-03-15T13:55:42.248Z,8.43
2018-03-15T13:58:09.881Z,9.07
2018-03-15T14:00:37.508Z,8.47
2018-03-15T14:03:05.079Z,8.90
2018-03-15T14:05:32.722Z,9.30
2018-03-15T14:08:00.289Z,8.90
2018-03-15T14:10:27.875Z,11.30
2018-03-15T14:12:55.517Z,9.63
2018-03-15T14:15:23.160Z,21.07
2018-03-15T14:17:50.795Z,9.40
2018-03-15T14:20:18.439Z,8.70
2018-03-15T14:22:46.054Z,10.20
2018-03-15T14:25:13.642Z,13.03
2018-03-15T14:27:41.274Z,8.50
2018-03-15T14:30:08.856Z,12.63
2018-03-15T14:32:36.431Z,8.90
2018-03-15T14:35:04.808Z,8.97
2018-03-15T14:37:32.383Z,10.70
2018-03-15T14:40:00.059Z,11.20
2018-03-15T14:42:27.694Z,11.63
2018-03-15T14:44:55.325Z,12.73
2018-03-15T14:47:22.900Z,11.57
2018-03-15T14:49:50.530Z,11.20
2018-03-15T14:52:18.114Z,13.20
2018-03-15T14:54:45.742Z,11.07
2018-03-15T14:57:13.318Z,10.13
2018-03-15T14:59:40.914Z,11.70
2018-03-15T15:02:08.523Z,10.87
2018-03-15T15:04:36.163Z,11.97
2018-03-15T15:07:03.739Z,11.47
2018-03-15T15:09:31.367Z,11.17
2018-03-15T15:11:59.011Z,15.50
2018-03-15T15:14:26.627Z,14.80
2018-03-15T15:16:54.194Z,17.40
2018-03-15T15:19:21.826Z,15.63
2018-03-15T15:21:49.467Z,33.03
2018-03-15T15:24:17.038Z,15.50
2018-03-15T15:26:44.731Z,15.60
2018-03-15T15:29:12.313Z,13.93
2018-03-15T15:31:39.947Z,12.70
2018-03-15T15:34:07.531Z,13.60
2018-03-15T15:36:35.095Z,14.60
2018-03-15T15:39:02.703Z,76.00
2018-03-15T15:41:30.362Z,26.93
2018-03-15T15:43:57.957Z,17.97
2018-03-15T15:46:25.538Z,14.90
2018-03-15T15:48:53.135Z,13.20
2018-03-15T15:51:20.806Z,14.40
2018-03-15T15:53:48.382Z,12.80
2018-03-15T15:56:15.946Z,12.20
2018-03-15T15:58:43.575Z,11.70
2018-03-15T16:01:11.165Z,14.63
2018-03-15T16:03:38.743Z,21.27
2018-03-15T16:06:06.413Z,14.87
2018-03-15T16:08:33.993Z,17.90
2018-03-15T16:11:01.641Z,80.13
2018-03-15T16:13:29.270Z,17.00
2018-03-15T16:15:56.905Z,17.10
2018-03-15T16:18:24.489Z,17.70
2018-03-15T16:20:52.130Z,16.10
2018-03-15T16:23:19.714Z,16.57
2018-03-15T16:25:47.350Z,15.07
2018-03-15T16:28:14.983Z,19.17
2018-03-15T16:30:42.547Z,18.93
2018-03-15T16:33:10.115Z,19.70
2018-03-15T16:35:37.698Z,31.80
2018-03-15T16:38:05.267Z,22.10
2018-03-15T16:40:32.899Z,25.40
2018-03-15T16:43:00.534Z,26.70
2018-03-15T16:45:28.111Z,29.60
2018-03-15T16:47:55.755Z,32.60
2018-03-15T16:50:23.377Z,38.50
2018-03-15T16:52:50.946Z,34.77
2018-03-15T16:55:18.582Z,43.60
2018-03-15T16:57:46.167Z,38.87
2018-03-15T17:00:13.763Z,28.70
2018-03-15T17:02:41.410Z,25.10
2018-03-15T17:05:08.983Z,26.50
2018-03-15T17:07:36.705Z,31.33
2018-03-15T17:10:04.339Z,31.37
2018-03-15T17:12:31.963Z,30.17
2018-03-15T17:14:59.562Z,32.50
2018-03-15T17:17:27.198Z,28.63
2018-03-15T17:19:54.913Z,27.23
2018-03-15T17:22:22.542Z,26.70
2018-03-15T17:24:50.238Z,27.40
2018-03-15T17:27:17.804Z,29.63
2018-03-15T17:29:45.391Z,32.47
2018-03-15T17:32:12.974Z,30.30
2018-03-15T17:34:40.543Z,27.00
2018-03-15T17:37:08.251Z,28.07
2018-03-15T17:39:35.885Z,30.07
2018-03-15T17:42:03.520Z,26.87
2018-03-15T17:44:31.171Z,25.93
2018-03-15T17:46:58.810Z,26.30
2018-03-15T17:49:26.446Z,27.40
2018-03-15T17:51:54.018Z,26.70
2018-03-15T17:54:21.669Z,25.27
2018-03-15T17:56:49.234Z,25.90
2018-03-15T17:59:16.863Z,25.03
2018-03-15T18:01:44.452Z,24.90
2018-03-15T18:04:12.023Z,23.90
2018-03-15T18:06:39.619Z,23.60
2018-03-15T18:09:07.251Z,25.30
2018-03-15T18:11:34.941Z,26.63
2018-03-15T18:14:02.579Z,31.10
2018-03-15T18:16:32.033Z,40.00
2018-03-15T18:18:59.620Z,34.00
2018-03-15T18:21:27.257Z,30.53
2018-03-15T18:23:54.840Z,27.27
2018-03-15T18:26:22.468Z,30.07
2018-03-15T18:28:50.142Z,30.80
2018-03-15T18:31:17.779Z,25.13
2018-03-15T18:33:47.128Z,26.97
2018-03-15T18:36:14.694Z,20.90
2018-03-15T18:38:43.304Z,21.40
2018-03-15T18:41:10.874Z,22.97
2018-03-15T18:43:38.508Z,22.97
2018-03-15T18:46:06.151Z,25.10
2018-03-15T18:48:33.719Z,26.43
2018-03-15T18:51:02.196Z,23.60
2018-03-15T18:53:29.821Z,22.13
2018-03-15T18:55:58.407Z,20.77
2018-03-15T18:58:26.044Z,22.87
2018-03-15T19:00:53.620Z,26.53
2018-03-15T19:03:21.211Z,25.90
2018-03-15T19:05:48.794Z,23.40
2018-03-15T19:08:17.091Z,19.00
2018-03-15T19:10:44.662Z,24.07
2018-03-15T19:13:12.299Z,25.00
2018-03-15T19:15:39.882Z,30.93
2018-03-15T19:18:07.459Z,31.37
2018-03-15T19:20:35.059Z,30.83
2018-03-15T19:23:02.630Z,30.63
2018-03-15T19:25:30.206Z,29.90
2018-03-15T19:27:57.783Z,24.00
2018-03-15T19:30:25.428Z,23.93
2018-03-15T19:32:53.961Z,21.40
2018-03-15T19:35:21.534Z,20.90
2018-03-15T19:37:49.149Z,18.83
2018-03-15T19:40:16.716Z,18.30
2018-03-15T19:42:44.303Z,17.97
2018-03-15T19:45:11.871Z,18.50
2018-03-15T19:47:39.502Z,34.97
2018-03-15T19:50:08.222Z,112.17
2018-03-15T19:52:35.856Z,81.33
2018-03-15T19:55:03.464Z,70.87
2018-03-15T19:57:31.042Z,51.13
2018-03-15T19:59:58.633Z,39.07
2018-03-15T20:02:26.253Z,32.10
2018-03-15T20:04:53.831Z,32.30
2018-03-15T20:07:21.455Z,27.93
2018-03-15T20:09:49.087Z,27.43
2018-03-15T20:12:16.708Z,25.63
2018-03-15T20:14:44.286Z,25.27
2018-03-15T20:17:11.919Z,23.30
2018-03-15T20:19:39.487Z,22.30
2018-03-15T20:22:07.072Z,18.60
2018-03-15T20:24:34.759Z,15.63
2018-03-15T20:27:02.387Z,13.93
2018-03-15T20:29:29.971Z,13.50
2018-03-15T20:31:57.600Z,16.03
2018-03-15T20:34:25.184Z,16.90
2018-03-15T20:36:52.761Z,16.47
2018-03-15T20:39:26.087Z,14.33
2018-03-15T20:41:53.725Z,11.57
2018-03-15T20:44:21.294Z,13.07
2018-03-15T20:46:54.574Z,11.00
2018-03-15T20:49:22.143Z,7.23
2018-03-15T20:51:49.770Z,7.00
2018-03-15T20:54:17.333Z,9.30
2018-03-15T20:56:44.913Z,9.87
2018-03-15T20:59:12.485Z,9.23
2018-03-15T21:01:40.042Z,9.53
2018-03-15T21:04:07.630Z,13.33
2018-03-15T21:06:35.256Z,13.80
2018-03-15T21:09:02.832Z,7.93
2018-03-15T21:11:30.452Z,4.90
2018-03-15T21:13:58.026Z,18.67
2018-03-15T21:16:25.586Z,18.83
2018-03-15T21:18:53.146Z,20.00
2018-03-15T21:21:20.743Z,19.03
2018-03-15T21:23:48.310Z,16.20
2018-03-15T21:26:15.947Z,17.40
2018-03-15T21:28:43.579Z,15.87
2018-03-15T21:31:11.163Z,18.47
2018-03-15T21:33:38.722Z,17.27
2018-03-15T21:36:06.286Z,17.33
2018-03-15T21:38:33.876Z,23.50
2018-03-15T21:41:01.440Z,18.77
2018-03-15T21:43:29.035Z,19.10
2018-03-15T21:45:56.598Z,21.13
2018-03-15T21:48:24.168Z,28.77
2018-03-15T21:50:51.733Z,28.50
2018-03-15T21:53:19.301Z,25.07
2018-03-15T21:55:46.870Z,24.90
2018-03-15T21:58:14.434Z,22.47
2018-03-15T22:00:42.064Z,22.67
2018-03-15T22:03:09.683Z,22.40
2018-03-15T22:05:37.317Z,23.73
2018-03-15T22:08:04.890Z,24.87
2018-03-15T22:10:32.453Z,22.70
2018-03-15T22:13:00.087Z,19.40
2018-03-15T22:15:27.646Z,16.13
2018-03-15T22:17:55.207Z,10.80
2018-03-15T22:20:22.831Z,8.80
2018-03-15T22:22:50.455Z,7.20
2018-03-15T22:25:18.010Z,5.87
2018-03-15T22:27:45.644Z,6.10
2018-03-15T22:30:13.203Z,4.83
2018-03-15T22:32:40.766Z,5.53
2018-03-15T22:35:08.386Z,6.03
2018-03-15T22:37:35.954Z,5.93
2018-03-15T22:40:03.548Z,7.83
2018-03-15T22:42:31.187Z,10.57
2018-03-15T22:44:58.755Z,6.97
2018-03-15T22:47:26.362Z,6.03
2018-03-15T22:49:53.976Z,5.30
2018-03-15T22:52:21.590Z,5.27
2018-03-15T22:54:49.153Z,3.97
2018-03-15T22:57:16.750Z,4.77
2018-03-15T22:59:44.373Z,4.20
2018-03-15T23:02:11.934Z,4.83
2018-03-15T23:04:39.551Z,4.70
2018-03-15T23:07:07.119Z,4.80
2018-03-15T23:09:34.738Z,4.60
2018-03-15T23:12:02.320Z,5.00
2018-03-15T23:14:29.886Z,5.23
2018-03-15T23:16:57.542Z,4.27
2018-03-15T23:19:25.168Z,4.90
2018-03-15T23:21:52.855Z,5.10
2018-03-15T23:24:20.411Z,5.17
2018-03-15T23:26:47.981Z,6.13
2018-03-15T23:29:15.567Z,5.73
2018-03-15T23:31:43.126Z,6.33
2018-03-15T23:34:10.735Z,5.87
2018-03-15T23:36:38.294Z,6.80
2018-03-15T23:39:05.850Z,7.47
2018-03-15T23:41:33.422Z,7.60
2018-03-15T23:44:00.995Z,8.17
2018-03-15T23:46:28.623Z,6.90
2018-03-15T23:48:56.178Z,8.27
2018-03-15T23:51:23.790Z,8.40
2018-03-15T23:53:51.343Z,9.30
2018-03-15T23:56:18.958Z,6.57
2018-03-15T23:58:46.602Z,7.00
